createdAt,value
2022-11-17T00:00:38.968Z,99.57
2022-11-17T00:03:05.493Z,100.00
2022-11-17T00:05:31.891Z,99.67
2022-11-17T00:07:58.427Z,99.45
2022-11-17T00:10:26.847Z,99.88
2022-11-17T00:13:11.962Z,99.89
2022-11-17T00:15:42.771Z,99.83
2022-11-17T00:18:27.709Z,99.70
2022-11-17T00:21:12.803Z,99.71
2022-11-17T00:23:48.465Z,100.00
2022-11-17T00:26:22.817Z,99.91
2022-11-17T00:28:54.250Z,99.75
2022-11-17T00:31:40.514Z,99.95
2022-11-17T00:34:07.724Z,99.73
2022-11-17T00:36:45.098Z,100.00
2022-11-17T00:39:13.003Z,99.20
2022-11-17T00:41:39.473Z,100.00
2022-11-17T00:44:06.454Z,99.70
2022-11-17T00:46:33.813Z,99.81
2022-11-17T00:49:00.399Z,99.41
2022-11-17T00:51:26.999Z,99.58
2022-11-17T00:53:53.989Z,99.82
2022-11-17T00:56:20.367Z,99.60
2022-11-17T00:58:46.775Z,99.50
2022-11-17T01:01:13.612Z,100.00
2022-11-17T01:03:40.159Z,99.62
2022-11-17T01:06:12.162Z,99.69
2022-11-17T01:08:38.955Z,99.50
2022-11-17T01:11:14.617Z,99.73
2022-11-17T01:13:42.270Z,99.67
2022-11-17T01:16:17.370Z,99.63
2022-11-17T01:18:45.711Z,99.78
2022-11-17T01:21:13.683Z,99.69
2022-11-17T01:23:42.244Z,99.85
2022-11-17T01:26:17.755Z,99.10
2022-11-17T01:28:44.543Z,99.12
2022-11-17T01:31:13.171Z,99.02
2022-11-17T01:33:40.303Z,99.00
2022-11-17T01:36:28.155Z,99.24
2022-11-17T01:38:54.952Z,99.22
2022-11-17T01:41:26.573Z,99.32
2022-11-17T01:43:58.520Z,99.95
2022-11-17T01:46:39.246Z,99.88
2022-11-17T01:49:13.811Z,99.91
2022-11-17T01:51:45.058Z,99.87
2022-11-17T01:54:13.189Z,99.75
2022-11-17T01:56:44.320Z,99.80
2022-11-17T01:59:25.383Z,99.52
2022-11-17T02:01:57.772Z,99.87
2022-11-17T02:04:29.897Z,98.93
2022-11-17T02:07:05.290Z,99.69
2022-11-17T02:09:35.365Z,99.59
2022-11-17T02:12:02.888Z,99.57
2022-11-17T02:14:29.297Z,99.46
2022-11-17T02:16:56.042Z,100.00
2022-11-17T02:19:26.945Z,99.79
2022-11-17T02:22:33.851Z,99.77
2022-11-17T02:25:29.662Z,100.00
2022-11-17T02:28:14.753Z,99.68
2022-11-17T02:30:51.977Z,99.97
2022-11-17T02:33:25.331Z,99.83
2022-11-17T02:36:07.792Z,100.00
2022-11-17T02:38:57.247Z,100.00
2022-11-17T02:41:30.630Z,99.95
2022-11-17T02:44:09.837Z,100.00
2022-11-17T02:46:51.168Z,100.00
2022-11-17T02:49:22.180Z,100.00
2022-11-17T02:51:52.315Z,99.89
2022-11-17T02:54:21.040Z,99.91
2022-11-17T02:56:47.408Z,99.55
2022-11-17T02:59:17.367Z,99.79
2022-11-17T03:02:10.954Z,99.96
2022-11-17T03:04:55.821Z,99.70
2022-11-17T03:07:37.501Z,99.79
2022-11-17T03:10:14.898Z,99.97
2022-11-17T03:12:53.679Z,99.70
2022-11-17T03:15:25.991Z,100.00
2022-11-17T03:18:04.244Z,99.95
2022-11-17T03:21:12.417Z,99.80
2022-11-17T03:24:05.368Z,99.95
2022-11-17T03:26:35.889Z,100.00
2022-11-17T03:29:06.569Z,100.00
2022-11-17T03:31:34.978Z,100.00
2022-11-17T03:34:05.130Z,100.00
2022-11-17T03:36:39.043Z,100.00
2022-11-17T03:39:19.382Z,100.00
2022-11-17T03:41:49.501Z,99.90
2022-11-17T03:44:19.779Z,100.00
2022-11-17T03:46:48.981Z,100.00
2022-11-17T03:49:25.851Z,99.97
2022-11-17T03:51:52.401Z,100.00
2022-11-17T03:54:18.920Z,100.00
2022-11-17T03:56:55.407Z,100.00
2022-11-17T03:59:31.482Z,100.00
2022-11-17T04:01:58.694Z,99.84
2022-11-17T04:04:45.326Z,100.00
2022-11-17T04:07:11.674Z,100.00
2022-11-17T04:09:38.159Z,99.68
2022-11-17T04:12:23.456Z,100.00
2022-11-17T04:15:08.415Z,100.00
2022-11-17T04:17:34.877Z,99.53
2022-11-17T04:20:01.288Z,99.70
2022-11-17T04:22:27.644Z,99.95
2022-11-17T04:24:54.014Z,100.00
2022-11-17T04:27:39.140Z,99.87
2022-11-17T04:30:05.876Z,100.00
2022-11-17T04:32:32.362Z,100.00
2022-11-17T04:34:58.736Z,100.00
2022-11-17T04:37:25.069Z,100.00
2022-11-17T04:39:51.437Z,100.00
2022-11-17T04:42:17.890Z,100.00
2022-11-17T04:44:44.242Z,100.00
2022-11-17T04:47:10.591Z,100.00
2022-11-17T04:49:36.902Z,100.00
2022-11-17T04:52:05.786Z,100.00
2022-11-17T04:54:32.220Z,100.00
2022-11-17T04:56:58.659Z,100.00
2022-11-17T04:59:25.161Z,100.00
2022-11-17T05:01:51.660Z,100.00
2022-11-17T05:04:39.781Z,100.00
2022-11-17T05:07:08.130Z,100.00
2022-11-17T05:09:34.820Z,100.00
2022-11-17T05:12:19.553Z,100.00
2022-11-17T05:14:48.979Z,100.00
2022-11-17T05:17:15.866Z,100.00
2022-11-17T05:19:46.925Z,100.00
2022-11-17T05:22:35.915Z,100.00
2022-11-17T05:25:04.890Z,100.00
2022-11-17T05:27:31.568Z,100.00
2022-11-17T05:29:57.898Z,100.00
2022-11-17T05:32:24.262Z,100.00
2022-11-17T05:34:50.831Z,100.00
2022-11-17T05:37:17.365Z,100.00
2022-11-17T05:39:43.733Z,100.00
2022-11-17T05:42:10.172Z,100.00
2022-11-17T05:44:36.586Z,100.00
2022-11-17T05:47:02.922Z,100.00
2022-11-17T05:49:29.269Z,100.00
2022-11-17T05:51:55.705Z,100.00
2022-11-17T05:54:22.087Z,100.00
2022-11-17T05:56:53.282Z,100.00
2022-11-17T05:59:28.421Z,100.00
2022-11-17T06:02:02.389Z,100.00
2022-11-17T06:04:28.933Z,100.00
2022-11-17T06:06:59.361Z,100.00
2022-11-17T06:09:28.638Z,100.00
2022-11-17T06:11:55.112Z,100.00
2022-11-17T06:14:21.473Z,100.00
2022-11-17T06:16:51.471Z,100.00
2022-11-17T06:19:27.119Z,100.00
2022-11-17T06:22:11.143Z,100.00
2022-11-17T06:24:39.102Z,100.00
2022-11-17T06:27:05.847Z,100.00
2022-11-17T06:29:32.408Z,100.00
2022-11-17T06:31:59.282Z,100.00
2022-11-17T06:34:27.555Z,100.00
2022-11-17T06:36:53.894Z,100.00
2022-11-17T06:39:20.300Z,100.00
2022-11-17T06:41:46.638Z,100.00
2022-11-17T06:44:13.006Z,100.00
2022-11-17T06:46:39.351Z,100.00
2022-11-17T06:49:07.485Z,100.00
2022-11-17T06:51:40.953Z,100.00
2022-11-17T06:54:12.327Z,100.00
2022-11-17T06:56:38.821Z,100.00
2022-11-17T06:59:05.369Z,100.00
2022-11-17T07:01:32.051Z,100.00
2022-11-17T07:03:58.549Z,100.00
2022-11-17T07:06:24.930Z,100.00
2022-11-17T07:08:51.365Z,100.00
2022-11-17T07:11:18.063Z,100.00
2022-11-17T07:13:44.819Z,100.00
2022-11-17T07:16:22.943Z,100.00
2022-11-17T07:18:50.492Z,100.00
2022-11-17T07:21:17.899Z,100.00
2022-11-17T07:23:45.646Z,100.00
2022-11-17T07:26:12.251Z,100.00
2022-11-17T07:28:39.033Z,100.00
2022-11-17T07:31:08.312Z,100.00
2022-11-17T07:33:35.463Z,100.00
2022-11-17T07:36:07.734Z,100.00
2022-11-17T07:38:35.725Z,100.00
2022-11-17T07:41:03.933Z,100.00
2022-11-17T07:43:31.243Z,100.00
2022-11-17T07:45:57.735Z,100.00
2022-11-17T07:48:24.368Z,100.00
2022-11-17T07:50:51.036Z,100.00
2022-11-17T07:53:17.625Z,100.00
2022-11-17T07:55:44.006Z,100.00
2022-11-17T07:58:10.555Z,100.00
2022-11-17T08:00:37.109Z,99.76
2022-11-17T08:03:04.354Z,99.80
2022-11-17T08:05:37.099Z,99.74
2022-11-17T08:08:07.969Z,99.94
2022-11-17T08:10:34.637Z,99.55
2022-11-17T08:13:01.250Z,99.69
2022-11-17T08:15:29.532Z,99.73
2022-11-17T08:17:58.154Z,99.80
2022-11-17T08:20:25.611Z,99.97
2022-11-17T08:22:53.074Z,99.91
2022-11-17T08:25:21.321Z,99.88
2022-11-17T08:27:51.868Z,100.00
2022-11-17T08:30:20.407Z,99.79
2022-11-17T08:32:49.212Z,99.79
2022-11-17T08:35:17.085Z,99.87
2022-11-17T08:37:43.517Z,100.00
2022-11-17T08:40:11.013Z,100.00
2022-11-17T08:42:37.666Z,100.00
2022-11-17T08:45:05.972Z,100.00
2022-11-17T08:47:32.417Z,99.78
2022-11-17T08:49:58.859Z,99.66
2022-11-17T08:52:27.688Z,99.89
2022-11-17T08:54:54.458Z,99.81
2022-11-17T08:57:23.855Z,99.91
2022-11-17T08:59:50.812Z,99.67
2022-11-17T09:02:17.801Z,99.65
2022-11-17T09:04:46.093Z,99.38
2022-11-17T09:07:12.641Z,98.95
2022-11-17T09:09:39.290Z,99.43
2022-11-17T09:12:05.962Z,99.02
2022-11-17T09:14:32.503Z,99.01
2022-11-17T09:16:59.287Z,98.95
2022-11-17T09:19:25.793Z,99.17
2022-11-17T09:21:52.229Z,99.04
2022-11-17T09:24:18.669Z,99.13
2022-11-17T09:26:45.108Z,98.92
2022-11-17T09:29:11.848Z,98.83
2022-11-17T09:31:38.702Z,98.79
2022-11-17T09:34:06.078Z,98.70
2022-11-17T09:36:33.035Z,98.55
2022-11-17T09:38:59.399Z,99.01
2022-11-17T09:41:38.424Z,98.76
2022-11-17T09:44:26.074Z,98.69
2022-11-17T09:46:55.643Z,98.49
2022-11-17T09:49:58.654Z,98.09
2022-11-17T09:52:36.993Z,97.83
2022-11-17T09:55:34.377Z,97.73
2022-11-17T09:58:03.896Z,97.66
2022-11-17T10:00:32.807Z,98.37
2022-11-17T10:02:59.312Z,98.20
2022-11-17T10:05:32.972Z,97.66
2022-11-17T10:08:03.454Z,97.46
2022-11-17T10:10:39.545Z,97.73
2022-11-17T10:13:14.310Z,97.90
2022-11-17T10:15:50.212Z,98.01
2022-11-17T10:18:17.449Z,97.74
2022-11-17T10:20:44.902Z,97.66
2022-11-17T10:23:19.477Z,97.52
2022-11-17T10:25:48.196Z,97.73
2022-11-17T10:28:32.312Z,97.92
2022-11-17T10:31:16.396Z,98.03
2022-11-17T10:33:45.953Z,97.45
2022-11-17T10:36:25.435Z,97.79
2022-11-17T10:38:54.291Z,98.08
2022-11-17T10:41:41.551Z,98.07
2022-11-17T10:44:25.097Z,97.46
2022-11-17T10:47:02.578Z,97.76
2022-11-17T10:49:40.340Z,97.57
2022-11-17T10:52:16.215Z,97.25
2022-11-17T10:54:43.215Z,98.07
2022-11-17T10:57:17.888Z,97.75
2022-11-17T10:59:57.182Z,97.74
2022-11-17T11:02:38.181Z,98.15
2022-11-17T11:05:13.373Z,97.90
2022-11-17T11:07:40.627Z,97.04
2022-11-17T11:10:34.469Z,97.34
2022-11-17T11:13:03.662Z,98.04
2022-11-17T11:15:34.172Z,97.28
2022-11-17T11:18:01.243Z,96.56
2022-11-17T11:20:53.861Z,97.33
2022-11-17T11:23:34.809Z,97.24
2022-11-17T11:26:16.318Z,96.32
2022-11-17T11:29:03.530Z,96.50
2022-11-17T11:31:35.903Z,95.92
2022-11-17T11:34:10.972Z,95.47
2022-11-17T11:36:47.307Z,95.59
2022-11-17T11:39:16.649Z,95.33
2022-11-17T11:42:08.134Z,95.33
2022-11-17T11:44:47.735Z,95.65
2022-11-17T11:47:47.791Z,95.62
2022-11-17T11:50:14.155Z,96.24
2022-11-17T11:52:46.199Z,96.05
2022-11-17T11:55:27.580Z,96.12
2022-11-17T11:58:02.515Z,96.69
2022-11-17T12:00:28.972Z,96.08
2022-11-17T12:03:04.545Z,95.89
2022-11-17T12:06:30.908Z,96.37
2022-11-17T12:09:18.956Z,96.35
2022-11-17T12:12:01.550Z,96.08
2022-11-17T12:14:29.475Z,97.13
2022-11-17T12:17:15.934Z,96.13
2022-11-17T12:19:53.845Z,95.38
2022-11-17T12:22:26.260Z,95.48
2022-11-17T12:24:57.854Z,95.52
2022-11-17T12:27:36.247Z,95.88
2022-11-17T12:30:05.874Z,94.85
2022-11-17T12:32:44.159Z,94.87
2022-11-17T12:35:24.273Z,95.29
2022-11-17T12:38:15.558Z,95.84
2022-11-17T12:40:45.083Z,95.56
2022-11-17T12:43:14.452Z,95.83
2022-11-17T12:45:53.047Z,95.63
2022-11-17T12:48:35.114Z,95.35
2022-11-17T12:51:23.339Z,94.93
2022-11-17T12:53:58.647Z,94.29
2022-11-17T12:56:43.841Z,89.72
2022-11-17T12:59:39.843Z,75.83
2022-11-17T13:02:40.716Z,74.92
2022-11-17T13:05:17.729Z,71.19
2022-11-17T13:07:44.285Z,66.45
2022-11-17T13:10:29.381Z,58.24
2022-11-17T13:13:19.631Z,56.29
2022-11-17T13:15:55.575Z,61.69
2022-11-17T13:18:41.941Z,62.47
2022-11-17T13:21:26.444Z,58.82
2022-11-17T13:23:53.693Z,68.03
2022-11-17T13:26:26.072Z,74.02
2022-11-17T13:29:13.231Z,79.98
2022-11-17T13:31:39.880Z,83.27
2022-11-17T13:34:12.759Z,83.77
2022-11-17T13:36:57.921Z,84.92
2022-11-17T13:39:27.878Z,85.53
2022-11-17T13:41:56.104Z,86.43
2022-11-17T13:44:24.637Z,77.21
2022-11-17T13:46:51.027Z,65.20
2022-11-17T13:49:37.009Z,57.44
2022-11-17T13:52:05.238Z,53.94
2022-11-17T13:54:33.036Z,57.88
2022-11-17T13:57:06.863Z,69.70
2022-11-17T13:59:38.915Z,75.44
2022-11-17T14:02:24.477Z,82.13
2022-11-17T14:05:26.411Z,84.98
2022-11-17T14:07:54.516Z,86.50
2022-11-17T14:10:20.797Z,88.50
2022-11-17T14:12:47.116Z,89.14
2022-11-17T14:15:24.575Z,89.40
2022-11-17T14:17:56.595Z,89.94
2022-11-17T14:20:25.891Z,90.03
2022-11-17T14:23:18.667Z,91.02
2022-11-17T14:25:50.004Z,91.48
2022-11-17T14:28:18.337Z,91.64
2022-11-17T14:30:48.360Z,92.21
2022-11-17T14:33:14.705Z,92.83
2022-11-17T14:35:41.789Z,92.16
2022-11-17T14:38:11.240Z,92.70
2022-11-17T14:40:37.639Z,92.45
2022-11-17T14:43:04.051Z,85.64
2022-11-17T14:45:30.688Z,86.37
2022-11-17T14:47:57.124Z,85.71
2022-11-17T14:50:23.497Z,87.42
2022-11-17T14:52:49.909Z,89.25
2022-11-17T14:55:16.352Z,91.52
2022-11-17T14:57:42.878Z,91.69
2022-11-17T15:00:13.411Z,92.86
2022-11-17T15:02:42.309Z,92.70
2022-11-17T15:05:08.863Z,92.46
2022-11-17T15:07:35.275Z,93.42
2022-11-17T15:10:01.719Z,92.82
2022-11-17T15:12:29.736Z,93.64
2022-11-17T15:14:57.580Z,94.01
2022-11-17T15:17:25.259Z,94.65
2022-11-17T15:19:51.926Z,94.87
2022-11-17T15:22:18.467Z,95.39
2022-11-17T15:24:45.162Z,94.86
2022-11-17T15:27:12.342Z,95.31
2022-11-17T15:29:38.790Z,95.58
2022-11-17T15:32:05.677Z,95.61
2022-11-17T15:34:32.074Z,95.54
2022-11-17T15:36:58.470Z,95.90
2022-11-17T15:39:24.920Z,95.92
2022-11-17T15:41:51.828Z,96.57
2022-11-17T15:44:20.848Z,96.76
2022-11-17T15:46:48.066Z,96.55
2022-11-17T15:49:15.369Z,97.57
2022-11-17T15:51:42.155Z,97.57
2022-11-17T15:54:15.119Z,97.92
2022-11-17T15:56:46.297Z,98.04
2022-11-17T15:59:12.794Z,97.82
2022-11-17T16:01:40.491Z,97.96
2022-11-17T16:04:12.471Z,97.76
2022-11-17T16:06:41.227Z,97.90
2022-11-17T16:09:08.197Z,98.15
2022-11-17T16:11:35.157Z,97.47
2022-11-17T16:14:02.609Z,97.53
2022-11-17T16:16:31.595Z,97.95
2022-11-17T16:18:58.292Z,98.25
2022-11-17T16:21:25.106Z,98.35
2022-11-17T16:23:54.648Z,98.08
2022-11-17T16:26:22.421Z,98.44
2022-11-17T16:28:49.003Z,98.57
2022-11-17T16:31:15.471Z,98.52
2022-11-17T16:33:47.945Z,98.67
2022-11-17T16:36:14.291Z,98.49
2022-11-17T16:38:49.882Z,98.33
2022-11-17T16:41:28.948Z,98.84
2022-11-17T16:43:57.535Z,98.79
2022-11-17T16:46:26.361Z,98.48
2022-11-17T16:48:53.461Z,98.85
2022-11-17T16:51:20.906Z,98.53
2022-11-17T16:53:54.247Z,98.93
2022-11-17T16:56:20.584Z,99.30
2022-11-17T16:58:49.170Z,98.79
2022-11-17T17:01:24.026Z,98.94
2022-11-17T17:03:56.256Z,99.28
2022-11-17T17:06:22.993Z,99.24
2022-11-17T17:08:59.913Z,99.09
2022-11-17T17:11:27.815Z,98.88
2022-11-17T17:13:56.158Z,98.99
2022-11-17T17:16:22.971Z,99.10
2022-11-17T17:18:54.355Z,99.08
2022-11-17T17:21:20.796Z,99.64
2022-11-17T17:23:47.253Z,99.37
2022-11-17T17:26:18.073Z,99.22
2022-11-17T17:28:46.888Z,99.71
2022-11-17T17:31:20.734Z,99.86
2022-11-17T17:33:48.528Z,99.74
2022-11-17T17:36:17.748Z,99.51
2022-11-17T17:38:44.199Z,99.55
2022-11-17T17:41:22.274Z,99.74
2022-11-17T17:43:54.957Z,100.00
2022-11-17T17:46:21.416Z,100.00
2022-11-17T17:48:47.923Z,99.70
2022-11-17T17:51:17.368Z,100.00
2022-11-17T17:53:44.141Z,99.86
2022-11-17T17:56:13.577Z,99.88
2022-11-17T17:58:41.218Z,99.84
2022-11-17T18:01:15.888Z,99.73
2022-11-17T18:03:45.634Z,100.00
2022-11-17T18:06:13.279Z,100.00
2022-11-17T18:08:40.011Z,100.00
2022-11-17T18:11:12.676Z,100.00
2022-11-17T18:13:41.698Z,100.00
2022-11-17T18:16:29.856Z,100.00
2022-11-17T18:19:08.383Z,99.92
2022-11-17T18:21:35.339Z,100.00
2022-11-17T18:24:03.163Z,100.00
2022-11-17T18:26:32.474Z,100.00
2022-11-17T18:29:01.764Z,100.00
2022-11-17T18:31:30.545Z,100.00
2022-11-17T18:34:02.639Z,100.00
2022-11-17T18:36:30.488Z,100.00
2022-11-17T18:38:58.568Z,100.00
2022-11-17T18:41:26.282Z,100.00
2022-11-17T18:43:54.593Z,100.00
2022-11-17T18:46:22.416Z,100.00
2022-11-17T18:48:53.455Z,100.00
2022-11-17T18:51:24.881Z,100.00
2022-11-17T18:53:54.034Z,100.00
2022-11-17T18:56:22.638Z,100.00
2022-11-17T18:58:49.161Z,100.00
2022-11-17T19:01:21.137Z,100.00
2022-11-17T19:03:50.506Z,100.00
2022-11-17T19:06:18.244Z,100.00
2022-11-17T19:08:45.502Z,100.00
2022-11-17T19:11:12.517Z,100.00
2022-11-17T19:13:40.578Z,100.00
2022-11-17T19:16:25.188Z,100.00
2022-11-17T19:18:54.527Z,100.00
2022-11-17T19:21:31.702Z,100.00
2022-11-17T19:24:00.617Z,100.00
2022-11-17T19:26:32.327Z,100.00
2022-11-17T19:29:01.052Z,100.00
2022-11-17T19:31:28.205Z,100.00
2022-11-17T19:33:55.268Z,100.00
2022-11-17T19:36:24.021Z,100.00
2022-11-17T19:38:52.804Z,100.00
2022-11-17T19:41:24.848Z,100.00
2022-11-17T19:43:55.690Z,100.00
2022-11-17T19:46:23.917Z,100.00
2022-11-17T19:48:50.898Z,100.00
2022-11-17T19:51:22.911Z,100.00
2022-11-17T19:53:51.716Z,100.00
2022-11-17T19:56:19.887Z,100.00
2022-11-17T19:58:46.714Z,100.00
2022-11-17T20:01:21.316Z,100.00
2022-11-17T20:03:49.030Z,100.00
2022-11-17T20:06:17.819Z,100.00
2022-11-17T20:08:45.275Z,99.90
2022-11-17T20:11:14.340Z,100.00
2022-11-17T20:13:41.495Z,100.00
2022-11-17T20:16:12.506Z,100.00
2022-11-17T20:18:40.371Z,100.00
2022-11-17T20:21:07.587Z,100.00
2022-11-17T20:23:35.577Z,100.00
2022-11-17T20:26:11.634Z,100.00
2022-11-17T20:28:38.488Z,100.00
2022-11-17T20:31:13.949Z,100.00
2022-11-17T20:33:42.226Z,100.00
2022-11-17T20:36:11.936Z,99.97
2022-11-17T20:38:38.361Z,99.94
2022-11-17T20:41:05.127Z,99.97
2022-11-17T20:43:32.278Z,99.91
2022-11-17T20:45:59.235Z,99.88
2022-11-17T20:48:26.384Z,100.00
2022-11-17T20:51:09.501Z,100.00
2022-11-17T20:53:36.347Z,100.00
2022-11-17T20:56:06.088Z,100.00
2022-11-17T20:58:33.540Z,100.00
2022-11-17T21:01:07.106Z,100.00
2022-11-17T21:03:33.889Z,100.00
2022-11-17T21:06:02.022Z,100.00
2022-11-17T21:08:30.964Z,100.00
2022-11-17T21:10:59.263Z,100.00
2022-11-17T21:13:27.582Z,100.00
2022-11-17T21:16:14.149Z,100.00
2022-11-17T21:18:49.455Z,100.00
2022-11-17T21:21:16.928Z,100.00
2022-11-17T21:23:44.648Z,100.00
2022-11-17T21:26:13.872Z,100.00
2022-11-17T21:28:41.307Z,100.00
2022-11-17T21:31:11.361Z,100.00
2022-11-17T21:33:38.640Z,100.00
2022-11-17T21:36:13.612Z,100.00
2022-11-17T21:38:40.290Z,100.00
2022-11-17T21:41:12.020Z,99.68
2022-11-17T21:43:40.155Z,99.92
2022-11-17T21:46:09.577Z,99.80
2022-11-17T21:48:37.316Z,99.89
2022-11-17T21:51:13.821Z,100.00
2022-11-17T21:53:41.465Z,99.78
2022-11-17T21:56:08.214Z,99.79
2022-11-17T21:58:34.727Z,99.94
2022-11-17T22:01:12.428Z,99.77
2022-11-17T22:03:40.183Z,99.91
2022-11-17T22:06:14.937Z,99.58
2022-11-17T22:08:42.943Z,99.30
2022-11-17T22:11:12.192Z,99.53
2022-11-17T22:13:39.217Z,99.58
2022-11-17T22:16:09.765Z,99.77
2022-11-17T22:18:37.771Z,99.47
2022-11-17T22:21:05.186Z,99.33
2022-11-17T22:23:31.624Z,99.42
2022-11-17T22:26:00.628Z,99.28
2022-11-17T22:28:27.420Z,99.52
2022-11-17T22:30:54.498Z,99.41
2022-11-17T22:33:22.573Z,99.19
2022-11-17T22:35:50.114Z,98.78
2022-11-17T22:38:17.165Z,99.08
2022-11-17T22:40:43.978Z,98.70
2022-11-17T22:43:14.907Z,98.74
2022-11-17T22:45:42.127Z,98.56
2022-11-17T22:48:08.985Z,98.74
2022-11-17T22:50:36.120Z,98.92
2022-11-17T22:53:02.993Z,98.38
2022-11-17T22:55:29.820Z,98.25
2022-11-17T22:57:56.335Z,98.62
2022-11-17T23:00:23.103Z,98.36
2022-11-17T23:02:49.745Z,98.43
2022-11-17T23:05:16.633Z,97.96
2022-11-17T23:07:43.269Z,98.41
2022-11-17T23:10:10.543Z,99.07
2022-11-17T23:12:37.124Z,99.46
2022-11-17T23:15:04.108Z,99.28
2022-11-17T23:17:30.738Z,99.15
2022-11-17T23:19:57.264Z,99.09
2022-11-17T23:22:23.594Z,99.33
2022-11-17T23:24:50.036Z,99.10
2022-11-17T23:27:16.587Z,98.97
2022-11-17T23:29:43.227Z,98.76
2022-11-17T23:32:09.873Z,99.16
2022-11-17T23:34:36.256Z,99.11
2022-11-17T23:37:04.111Z,99.38
2022-11-17T23:39:30.703Z,98.87
2022-11-17T23:41:57.095Z,99.42
2022-11-17T23:44:23.500Z,99.29
2022-11-17T23:46:49.957Z,98.85
2022-11-17T23:49:17.541Z,98.40
2022-11-17T23:51:44.475Z,98.92
2022-11-17T23:54:12.195Z,98.92
2022-11-17T23:56:38.919Z,98.65
2022-11-17T23:59:05.639Z,99.17
